createdAt,value
2022-08-23T00:00:45.760Z,22.75
2022-08-23T00:01:54.367Z,22.72
2022-08-23T00:02:57.155Z,22.70
2022-08-23T00:04:04.677Z,22.67
2022-08-23T00:05:08.995Z,22.67
2022-08-23T00:06:12.169Z,22.70
2022-08-23T00:07:15.817Z,22.71
2022-08-23T00:08:30.948Z,22.66
2022-08-23T00:09:34.406Z,22.66
2022-08-23T00:10:36.473Z,22.65
2022-08-23T00:12:15.794Z,22.65
2022-08-23T00:13:17.971Z,22.60
2022-08-23T00:14:25.140Z,22.60
2022-08-23T00:15:27.766Z,22.58
2022-08-23T00:16:30.039Z,22.63
2022-08-23T00:17:34.181Z,22.62
2022-08-23T00:18:37.254Z,22.59
2022-08-23T00:19:40.326Z,22.58
2022-08-23T00:20:43.084Z,22.58
2022-08-23T00:21:46.983Z,22.60
2022-08-23T00:22:49.164Z,22.59
2022-08-23T00:23:51.365Z,22.57
2022-08-23T00:24:53.657Z,22.55
2022-08-23T00:25:55.788Z,22.53
2022-08-23T00:27:05.208Z,22.52
2022-08-23T00:28:14.965Z,22.48
2022-08-23T00:29:17.571Z,22.47
2022-08-23T00:30:19.718Z,22.44
2022-08-23T00:31:22.197Z,22.42
2022-08-23T00:33:28.177Z,22.40
2022-08-23T00:34:30.676Z,22.38
2022-08-23T00:35:33.688Z,22.35
2022-08-23T00:36:36.335Z,22.39
2022-08-23T00:37:39.309Z,22.38
2022-08-23T00:38:42.289Z,22.35
2022-08-23T00:39:45.311Z,22.38
2022-08-23T00:40:51.364Z,22.33
2022-08-23T00:41:59.241Z,22.28
2022-08-23T00:43:26.887Z,22.24
2022-08-23T00:45:12.495Z,22.23
2022-08-23T00:46:49.847Z,22.17
2022-08-23T00:47:52.188Z,22.18
2022-08-23T00:48:55.851Z,22.15
2022-08-23T00:50:23.640Z,22.16
2022-08-23T00:51:52.287Z,22.11
2022-08-23T00:53:12.484Z,22.06
2022-08-23T00:54:17.301Z,22.02
2022-08-23T00:55:21.504Z,22.05
2022-08-23T00:56:26.321Z,22.07
2022-08-23T00:57:34.319Z,22.04
2022-08-23T00:58:36.588Z,22.03
2022-08-23T00:59:39.566Z,22.04
2022-08-23T01:00:42.202Z,22.01
2022-08-23T01:01:44.423Z,21.99
2022-08-23T01:02:51.250Z,22.01
2022-08-23T01:04:04.318Z,21.93
2022-08-23T01:05:08.368Z,21.88
2022-08-23T01:06:34.388Z,21.93
2022-08-23T01:07:53.397Z,21.93
2022-08-23T01:09:02.455Z,21.92
2022-08-23T01:10:20.020Z,21.91
2022-08-23T01:11:41.281Z,21.92
2022-08-23T01:12:51.079Z,21.90
2022-08-23T01:13:58.699Z,21.85
2022-08-23T01:15:15.866Z,21.88
2022-08-23T01:16:34.252Z,21.87
2022-08-23T01:17:46.520Z,21.79
2022-08-23T01:18:49.797Z,21.77
2022-08-23T01:19:59.623Z,21.70
2022-08-23T01:21:13.816Z,21.78
2022-08-23T01:22:47.995Z,21.78
2022-08-23T01:23:55.836Z,21.72
2022-08-23T01:25:07.439Z,21.76
2022-08-23T01:26:21.724Z,21.74
2022-08-23T01:27:25.267Z,21.74
2022-08-23T01:28:27.703Z,21.71
2022-08-23T01:29:30.012Z,21.72
2022-08-23T01:30:34.620Z,21.69
2022-08-23T01:31:37.943Z,21.65
2022-08-23T01:32:46.028Z,21.67
2022-08-23T01:33:56.621Z,21.67
2022-08-23T01:34:59.148Z,21.67
2022-08-23T01:36:02.441Z,21.63
2022-08-23T01:37:10.222Z,21.63
2022-08-23T01:38:13.766Z,21.60
2022-08-23T01:39:16.994Z,21.64
2022-08-23T01:40:19.388Z,21.64
2022-08-23T01:41:24.178Z,21.63
2022-08-23T01:42:26.465Z,21.63
2022-08-23T01:43:29.115Z,21.63
2022-08-23T01:44:31.845Z,21.63
2022-08-23T01:45:35.136Z,21.65
2022-08-23T01:46:38.146Z,21.60
2022-08-23T01:47:42.957Z,21.63
2022-08-23T01:48:47.097Z,21.63
2022-08-23T01:49:50.293Z,21.66
2022-08-23T01:50:52.504Z,21.68
2022-08-23T01:51:56.314Z,21.67
2022-08-23T01:52:59.990Z,21.69
2022-08-23T01:54:04.813Z,21.71
2022-08-23T01:55:07.890Z,21.73
2022-08-23T01:56:15.472Z,21.75
2022-08-23T01:57:17.966Z,21.76
2022-08-23T01:58:20.912Z,21.75
2022-08-23T01:59:24.421Z,21.76
2022-08-23T02:00:33.252Z,21.72
2022-08-23T02:01:35.661Z,21.74
2022-08-23T02:02:38.830Z,21.76
2022-08-23T02:03:42.142Z,21.74
2022-08-23T02:04:44.403Z,21.76
2022-08-23T02:05:47.001Z,21.75
2022-08-23T02:06:49.821Z,21.73
2022-08-23T02:07:57.437Z,21.75
2022-08-23T02:09:04.808Z,21.74
2022-08-23T02:10:11.485Z,21.76
2022-08-23T02:11:17.828Z,21.75
2022-08-23T02:12:22.442Z,21.76
2022-08-23T02:13:27.978Z,21.74
2022-08-23T02:14:33.293Z,21.70
2022-08-23T02:15:36.907Z,21.76
2022-08-23T02:16:58.046Z,21.75
2022-08-23T02:18:07.457Z,21.74
2022-08-23T02:19:12.559Z,21.74
2022-08-23T02:20:15.367Z,21.73
2022-08-23T02:21:19.467Z,21.76
2022-08-23T02:22:22.745Z,21.76
2022-08-23T02:23:25.185Z,21.76
2022-08-23T02:24:27.956Z,21.76
2022-08-23T02:25:31.341Z,21.78
2022-08-23T02:26:38.532Z,21.79
2022-08-23T02:27:43.914Z,21.79
2022-08-23T02:28:51.943Z,21.80
2022-08-23T02:29:59.602Z,21.81
2022-08-23T02:31:05.889Z,21.81
2022-08-23T02:32:13.065Z,21.84
2022-08-23T02:33:16.443Z,21.84
2022-08-23T02:34:20.785Z,21.86
2022-08-23T02:35:24.651Z,21.86
2022-08-23T02:36:28.340Z,21.89
2022-08-23T02:37:31.728Z,21.88
2022-08-23T02:38:36.235Z,21.90
2022-08-23T02:39:39.722Z,21.93
2022-08-23T02:40:42.984Z,21.99
2022-08-23T02:41:50.361Z,21.98
2022-08-23T02:42:53.775Z,21.99
2022-08-23T02:43:57.370Z,22.00
2022-08-23T02:44:59.762Z,22.01
2022-08-23T02:46:03.460Z,22.03
2022-08-23T02:47:07.957Z,21.99
2022-08-23T02:48:12.061Z,22.00
2022-08-23T02:49:26.661Z,22.06
2022-08-23T02:50:28.863Z,22.02
2022-08-23T02:51:31.223Z,22.07
2022-08-23T02:52:34.303Z,22.04
2022-08-23T02:53:37.369Z,22.08
2022-08-23T02:54:42.813Z,22.06
2022-08-23T02:55:47.036Z,22.11
2022-08-23T02:56:49.543Z,22.15
2022-08-23T02:57:52.039Z,22.17
2022-08-23T02:58:54.970Z,22.19
2022-08-23T02:59:58.729Z,22.26
2022-08-23T03:01:01.488Z,22.19
2022-08-23T03:02:08.824Z,22.23
2022-08-23T03:03:15.225Z,22.18
2022-08-23T03:04:17.889Z,22.26
2022-08-23T03:05:20.361Z,22.30
2022-08-23T03:06:25.783Z,22.23
2022-08-23T03:07:28.657Z,22.25
2022-08-23T03:08:33.821Z,22.29
2022-08-23T03:09:36.836Z,22.37
2022-08-23T03:10:43.933Z,22.41
2022-08-23T03:11:48.650Z,22.41
2022-08-23T03:12:51.960Z,22.42
2022-08-23T03:13:56.723Z,22.44
2022-08-23T03:15:00.077Z,22.40
2022-08-23T03:16:02.889Z,22.48
2022-08-23T03:17:07.388Z,22.41
2022-08-23T03:18:13.244Z,22.46
2022-08-23T03:19:15.887Z,22.44
2022-08-23T03:20:18.543Z,22.46
2022-08-23T03:21:22.880Z,22.54
2022-08-23T03:22:25.658Z,22.56
2022-08-23T03:23:29.578Z,22.56
2022-08-23T03:24:31.955Z,22.51
2022-08-23T03:25:36.529Z,22.55
2022-08-23T03:27:02.935Z,22.59
2022-08-23T03:28:07.223Z,22.60
2022-08-23T03:29:14.181Z,22.57
2022-08-23T03:30:37.288Z,22.64
2022-08-23T03:31:41.741Z,22.61
2022-08-23T03:32:48.874Z,22.69
2022-08-23T03:33:52.941Z,22.77
2022-08-23T03:34:55.745Z,22.76
2022-08-23T03:36:00.930Z,22.81
2022-08-23T03:37:07.766Z,22.89
2022-08-23T03:38:12.208Z,22.88
2022-08-23T03:39:16.123Z,22.85
2022-08-23T03:40:21.270Z,22.88
2022-08-23T03:41:25.997Z,22.90
2022-08-23T03:42:30.930Z,22.93
2022-08-23T03:43:34.127Z,22.96
2022-08-23T03:44:38.657Z,22.98
2022-08-23T03:45:41.765Z,22.96
2022-08-23T03:46:46.975Z,23.06
2022-08-23T03:47:50.868Z,23.07
2022-08-23T03:49:02.195Z,23.07
2022-08-23T03:50:15.049Z,23.05
2022-08-23T03:51:21.169Z,23.10
2022-08-23T03:52:36.573Z,23.07
2022-08-23T03:53:39.166Z,23.13
2022-08-23T03:54:46.823Z,23.17
2022-08-23T03:55:57.299Z,23.22
2022-08-23T03:57:05.805Z,23.14
2022-08-23T03:59:31.737Z,23.19
2022-08-23T04:00:36.094Z,23.16
2022-08-23T04:01:42.304Z,23.22
2022-08-23T04:08:00.048Z,23.49
2022-08-23T04:09:12.191Z,23.48
2022-08-23T04:10:16.306Z,23.50
2022-08-23T04:11:22.886Z,23.60
2022-08-23T04:12:32.892Z,23.67
2022-08-23T04:13:43.367Z,23.68
2022-08-23T04:16:22.082Z,24.01
2022-08-23T04:17:37.467Z,24.10
2022-08-23T04:18:41.144Z,24.10
2022-08-23T04:20:10.211Z,24.16
2022-08-23T04:21:25.288Z,24.15
2022-08-23T04:22:27.673Z,24.20
2022-08-23T04:23:35.793Z,24.22
2022-08-23T04:24:56.277Z,24.32
2022-08-23T04:25:59.191Z,24.55
2022-08-23T04:27:07.409Z,24.77
2022-08-23T04:28:11.462Z,24.86
2022-08-23T04:29:24.847Z,24.83
2022-08-23T04:30:39.407Z,24.99
2022-08-23T04:31:44.132Z,25.30
2022-08-23T04:32:51.689Z,25.27
2022-08-23T04:33:56.687Z,25.42
2022-08-23T04:34:59.989Z,25.32
2022-08-23T04:36:04.898Z,25.07
2022-08-23T04:37:09.363Z,25.14
2022-08-23T04:38:24.677Z,25.24
2022-08-23T04:39:32.809Z,25.14
2022-08-23T04:40:56.783Z,24.97
2022-08-23T04:42:18.000Z,24.91
2022-08-23T04:43:22.102Z,24.82
2022-08-23T04:44:26.291Z,24.75
2022-08-23T04:45:30.302Z,24.72
2022-08-23T04:46:32.846Z,24.79
2022-08-23T04:47:39.473Z,24.91
2022-08-23T04:48:46.305Z,24.94
2022-08-23T04:49:50.487Z,24.89
2022-08-23T04:50:53.679Z,24.91
2022-08-23T04:53:39.137Z,25.15
2022-08-23T04:55:01.688Z,25.37
2022-08-23T04:56:25.540Z,25.66
2022-08-23T04:57:30.878Z,25.74
2022-08-23T04:59:54.356Z,26.19
2022-08-23T05:01:01.187Z,26.45
2022-08-23T05:02:05.991Z,26.37
2022-08-23T05:03:10.519Z,26.28
2022-08-23T05:04:19.765Z,26.66
2022-08-23T05:05:29.669Z,26.70
2022-08-23T05:06:32.960Z,26.83
2022-08-23T05:07:42.670Z,27.10
2022-08-23T05:08:46.824Z,26.95
2022-08-23T05:09:49.790Z,26.88
2022-08-23T05:10:54.216Z,26.88
2022-08-23T05:11:56.745Z,27.19
2022-08-23T05:13:00.555Z,27.26
2022-08-23T05:14:02.939Z,27.41
2022-08-23T05:15:07.967Z,27.40
2022-08-23T05:16:10.929Z,27.76
2022-08-23T05:17:19.249Z,27.71
2022-08-23T05:18:22.999Z,27.90
2022-08-23T05:19:27.438Z,28.23
2022-08-23T05:20:30.235Z,28.39
2022-08-23T05:21:32.496Z,28.24
2022-08-23T05:22:41.295Z,28.53
2022-08-23T05:24:18.304Z,28.86
2022-08-23T05:25:23.037Z,28.57
2022-08-23T05:26:28.323Z,28.81
2022-08-23T05:27:30.854Z,28.79
2022-08-23T05:28:35.047Z,28.95
2022-08-23T05:29:38.670Z,29.26
2022-08-23T05:30:41.103Z,29.71
2022-08-23T05:31:50.137Z,29.61
2022-08-23T05:32:53.618Z,29.81
2022-08-23T05:33:57.570Z,30.26
2022-08-23T05:35:07.655Z,30.57
2022-08-23T05:36:17.211Z,30.75
2022-08-23T05:37:19.645Z,31.06
2022-08-23T05:38:24.571Z,30.86
2022-08-23T05:39:36.130Z,30.62
2022-08-23T05:40:42.608Z,31.02
2022-08-23T05:41:48.249Z,30.93
2022-08-23T05:42:51.217Z,30.75
2022-08-23T05:44:14.799Z,30.72
2022-08-23T05:45:21.886Z,30.21
2022-08-23T05:46:28.453Z,30.31
2022-08-23T05:48:04.690Z,29.90
2022-08-23T05:49:28.532Z,30.13
2022-08-23T05:50:37.660Z,29.88
2022-08-23T05:51:39.879Z,30.11
2022-08-23T05:54:07.582Z,30.84
2022-08-23T05:55:09.781Z,31.18
2022-08-23T05:56:42.756Z,31.25
2022-08-23T05:57:50.011Z,31.35
2022-08-23T05:58:59.127Z,31.89
2022-08-23T06:00:03.144Z,32.27
2022-08-23T06:01:06.941Z,31.81
2022-08-23T06:02:10.126Z,31.88
2022-08-23T06:03:12.258Z,31.60
2022-08-23T06:04:16.242Z,30.97
2022-08-23T06:05:26.571Z,31.26
2022-08-23T06:07:00.961Z,31.13
2022-08-23T06:08:41.699Z,31.01
2022-08-23T06:09:49.192Z,31.23
2022-08-23T06:11:08.944Z,30.95
2022-08-23T06:12:16.608Z,31.58
2022-08-23T06:13:19.724Z,31.13
2022-08-23T06:14:21.980Z,31.01
2022-08-23T06:15:24.735Z,30.53
2022-08-23T06:16:36.991Z,30.85
2022-08-23T06:17:39.750Z,30.85
2022-08-23T06:18:42.887Z,31.37
2022-08-23T06:20:03.947Z,31.35
2022-08-23T06:21:16.845Z,31.45
2022-08-23T06:22:25.044Z,31.30
2022-08-23T06:23:29.433Z,30.88
2022-08-23T06:24:31.861Z,30.86
2022-08-23T06:25:41.129Z,30.40
2022-08-23T06:26:49.266Z,29.95
2022-08-23T06:27:52.748Z,30.23
2022-08-23T06:28:57.242Z,30.43
2022-08-23T06:30:02.402Z,30.13
2022-08-23T06:31:05.737Z,30.23
2022-08-23T06:32:11.169Z,30.40
2022-08-23T06:33:21.009Z,30.57
2022-08-23T06:34:46.631Z,31.22
2022-08-23T06:36:18.946Z,31.03
2022-08-23T06:37:50.465Z,31.06
2022-08-23T06:39:12.709Z,31.24
2022-08-23T06:40:35.511Z,32.13
2022-08-23T06:42:05.450Z,31.75
2022-08-23T06:43:18.801Z,31.80
2022-08-23T06:44:30.466Z,32.01
2022-08-23T06:45:55.131Z,32.26
2022-08-23T06:47:01.275Z,32.45
2022-08-23T06:48:41.786Z,32.54
2022-08-23T06:49:50.921Z,33.01
2022-08-23T06:51:26.734Z,32.46
2022-08-23T06:52:48.822Z,32.23
2022-08-23T06:54:02.916Z,32.33
2022-08-23T06:55:28.075Z,32.02
2022-08-23T06:56:51.649Z,32.42
2022-08-23T06:57:57.751Z,32.37
2022-08-23T06:59:17.662Z,32.19
2022-08-23T07:00:57.498Z,32.39
2022-08-23T07:02:09.981Z,32.02
2022-08-23T07:03:32.363Z,31.76
2022-08-23T07:04:57.214Z,32.36
2022-08-23T07:06:27.360Z,32.51
2022-08-23T07:07:37.586Z,32.28
2022-08-23T07:08:44.474Z,32.44
2022-08-23T07:09:54.849Z,32.49
2022-08-23T07:10:57.689Z,33.03
2022-08-23T07:12:01.786Z,32.85
2022-08-23T07:13:05.550Z,32.89
2022-08-23T07:14:11.408Z,32.87
2022-08-23T07:15:13.992Z,32.73
2022-08-23T07:16:26.102Z,32.76
2022-08-23T07:17:28.361Z,33.46
2022-08-23T07:18:33.350Z,33.25
2022-08-23T07:19:36.286Z,33.54
2022-08-23T07:20:39.061Z,33.71
2022-08-23T07:21:42.014Z,33.83
2022-08-23T07:22:44.734Z,34.05
2022-08-23T07:23:47.611Z,33.84
2022-08-23T07:24:50.276Z,33.67
2022-08-23T07:25:53.556Z,33.96
2022-08-23T07:26:59.109Z,33.38
2022-08-23T07:28:02.390Z,33.62
2022-08-23T07:29:06.605Z,33.74
2022-08-23T07:30:09.367Z,33.78
2022-08-23T07:31:27.572Z,33.93
2022-08-23T07:32:29.863Z,33.93
2022-08-23T07:33:53.830Z,34.23
2022-08-23T07:34:57.435Z,34.15
2022-08-23T07:36:00.322Z,34.24
2022-08-23T07:37:04.461Z,34.54
2022-08-23T07:38:16.088Z,34.66
2022-08-23T07:39:21.016Z,34.63
2022-08-23T07:40:23.305Z,34.34
2022-08-23T07:41:36.091Z,34.31
2022-08-23T07:42:40.367Z,35.76
2022-08-23T07:43:43.056Z,35.83
2022-08-23T07:44:46.223Z,35.00
2022-08-23T07:45:49.407Z,34.36
2022-08-23T07:46:55.462Z,34.90
2022-08-23T07:47:57.825Z,34.65
2022-08-23T07:49:01.922Z,34.40
2022-08-23T07:50:13.095Z,35.05
2022-08-23T07:51:15.684Z,34.95
2022-08-23T07:52:18.691Z,35.56
2022-08-23T07:53:37.447Z,35.31
2022-08-23T07:54:41.562Z,35.26
2022-08-23T07:56:05.488Z,35.41
2022-08-23T07:57:27.586Z,35.00
2022-08-23T07:58:48.676Z,35.31
2022-08-23T08:00:09.451Z,34.90
2022-08-23T08:01:34.624Z,34.83
2022-08-23T08:02:36.885Z,34.43
2022-08-23T08:03:40.320Z,34.56
2022-08-23T08:04:49.734Z,34.32
2022-08-23T08:05:52.374Z,34.33
2022-08-23T08:07:16.973Z,34.64
2022-08-23T08:08:19.362Z,34.08
2022-08-23T08:09:22.711Z,35.06
2022-08-23T08:10:25.617Z,35.27
2022-08-23T08:11:34.467Z,35.85
2022-08-23T08:12:38.320Z,36.46
2022-08-23T08:13:52.196Z,36.78
2022-08-23T08:14:55.447Z,36.66
2022-08-23T08:16:05.515Z,37.79
2022-08-23T08:17:09.797Z,38.22
2022-08-23T08:18:40.000Z,38.20
2022-08-23T08:20:21.968Z,38.63
2022-08-23T08:21:42.498Z,38.52
2022-08-23T08:23:04.088Z,38.86
2022-08-23T08:24:26.378Z,38.65
2022-08-23T08:25:34.464Z,38.84
2022-08-23T08:26:41.687Z,38.54
2022-08-23T08:27:43.971Z,39.06
2022-08-23T08:28:46.127Z,39.41
2022-08-23T08:29:48.196Z,39.40
2022-08-23T08:30:50.224Z,39.13
2022-08-23T08:31:54.281Z,39.60
2022-08-23T08:32:57.006Z,39.85
2022-08-23T08:33:59.362Z,39.37
2022-08-23T08:35:03.724Z,39.43
2022-08-23T08:36:07.528Z,39.13
2022-08-23T08:37:09.991Z,39.05
2022-08-23T08:38:11.996Z,39.81
2022-08-23T08:39:22.044Z,39.98
2022-08-23T08:40:31.659Z,39.27
2022-08-23T08:42:18.277Z,39.05
2022-08-23T08:43:42.425Z,39.85
2022-08-23T08:44:59.033Z,38.81
2022-08-23T08:46:22.056Z,38.31
2022-08-23T08:47:54.744Z,38.89
2022-08-23T08:49:02.158Z,39.01
2022-08-23T08:50:33.764Z,38.06
2022-08-23T08:51:48.938Z,38.76
2022-08-23T08:52:54.269Z,38.36
2022-08-23T08:54:17.623Z,38.72
2022-08-23T08:55:39.046Z,38.12
2022-08-23T08:56:43.007Z,38.16
2022-08-23T08:57:55.443Z,38.17
2022-08-23T08:59:02.782Z,38.52
2022-08-23T09:00:10.756Z,38.02
2022-08-23T09:01:20.222Z,37.33
2022-08-23T09:02:32.628Z,37.06
2022-08-23T09:03:40.652Z,37.25
2022-08-23T09:04:46.372Z,37.09
2022-08-23T09:06:04.490Z,37.03
2022-08-23T09:07:31.280Z,36.85
2022-08-23T09:08:50.962Z,37.26
2022-08-23T09:10:03.781Z,37.33
2022-08-23T09:11:20.817Z,36.57
2022-08-23T09:12:38.028Z,36.22
2022-08-23T09:13:46.248Z,35.93
2022-08-23T09:15:15.735Z,35.83
2022-08-23T09:16:50.750Z,35.01
2022-08-23T09:17:57.286Z,34.91
2022-08-23T09:19:02.498Z,34.41
2022-08-23T09:20:06.575Z,34.42
2022-08-23T09:21:10.305Z,34.31
2022-08-23T09:22:17.487Z,34.25
2022-08-23T09:23:29.786Z,34.20
2022-08-23T09:24:32.793Z,34.15
2022-08-23T09:25:57.889Z,33.78
2022-08-23T09:27:09.657Z,33.43
2022-08-23T09:28:14.463Z,32.96
2022-08-23T09:29:25.448Z,33.25
2022-08-23T09:30:55.102Z,33.30
2022-08-23T09:32:06.420Z,33.26
2022-08-23T09:33:21.581Z,33.34
2022-08-23T09:34:36.007Z,32.94
2022-08-23T09:36:02.258Z,32.90
2022-08-23T09:37:23.128Z,32.81
2022-08-23T09:38:27.178Z,32.74
2022-08-23T09:39:37.602Z,32.74
2022-08-23T09:40:51.591Z,32.71
2022-08-23T09:41:54.096Z,32.87
2022-08-23T09:43:13.498Z,32.73
2022-08-23T09:44:36.686Z,32.44
2022-08-23T09:45:55.761Z,32.64
2022-08-23T09:47:07.719Z,32.52
2022-08-23T09:48:14.815Z,32.50
2022-08-23T09:49:30.668Z,32.80
2022-08-23T09:50:51.023Z,32.82
2022-08-23T09:51:56.056Z,32.90
2022-08-23T09:53:05.196Z,32.80
2022-08-23T09:54:19.247Z,32.73
2022-08-23T09:55:32.681Z,32.96
2022-08-23T09:56:41.360Z,32.60
2022-08-23T09:57:48.636Z,32.44
2022-08-23T09:58:54.647Z,32.74
2022-08-23T10:00:29.122Z,32.99
2022-08-23T10:01:39.304Z,33.04
2022-08-23T10:02:47.393Z,32.89
2022-08-23T10:04:14.676Z,32.82
2022-08-23T10:05:30.155Z,32.89
2022-08-23T10:06:34.396Z,32.90
2022-08-23T10:07:52.207Z,32.92
2022-08-23T10:08:58.549Z,32.80
2022-08-23T10:10:24.816Z,32.89
2022-08-23T10:11:33.472Z,33.07
2022-08-23T10:12:36.602Z,33.12
2022-08-23T10:13:42.149Z,32.95
2022-08-23T10:14:45.144Z,32.89
2022-08-23T10:16:23.646Z,32.59
2022-08-23T10:17:59.761Z,32.43
2022-08-23T10:19:18.307Z,32.38
2022-08-23T10:20:28.211Z,32.51
2022-08-23T10:21:52.247Z,32.42
2022-08-23T10:23:09.418Z,32.56
2022-08-23T10:24:45.182Z,32.48
2022-08-23T10:26:01.584Z,32.64
2022-08-23T10:27:30.457Z,32.72
2022-08-23T10:29:13.260Z,32.79
2022-08-23T10:30:26.895Z,32.94
2022-08-23T10:31:41.448Z,32.90
2022-08-23T10:33:14.350Z,32.91
2022-08-23T10:34:24.248Z,32.61
2022-08-23T10:35:39.223Z,32.52
2022-08-23T10:37:05.942Z,32.77
2022-08-23T10:38:28.816Z,32.63
2022-08-23T10:39:33.841Z,32.64
2022-08-23T10:41:04.515Z,32.65
2022-08-23T10:42:31.870Z,32.90
2022-08-23T10:43:40.516Z,32.95
2022-08-23T10:44:59.246Z,33.04
2022-08-23T10:46:03.066Z,33.13
2022-08-23T10:47:38.053Z,33.08
2022-08-23T10:48:57.154Z,32.85
2022-08-23T10:50:08.281Z,33.00
2022-08-23T10:51:23.029Z,32.90
2022-08-23T10:52:40.702Z,33.06
2022-08-23T10:53:57.092Z,32.88
2022-08-23T10:55:17.432Z,32.92
2022-08-23T10:56:22.025Z,32.93
2022-08-23T10:57:40.508Z,33.26
2022-08-23T10:58:54.545Z,33.03
2022-08-23T10:59:59.330Z,32.99
2022-08-23T11:01:03.291Z,33.05
2022-08-23T11:02:33.422Z,33.23
2022-08-23T11:04:01.636Z,33.26
2022-08-23T11:05:33.841Z,33.41
2022-08-23T11:06:49.776Z,33.03
2022-08-23T11:08:05.275Z,32.99
2022-08-23T11:09:30.446Z,32.88
2022-08-23T11:10:53.746Z,32.87
2022-08-23T11:12:22.091Z,32.93
2022-08-23T11:13:28.933Z,33.08
2022-08-23T11:14:30.951Z,33.10
2022-08-23T11:16:01.216Z,33.05
2022-08-23T11:17:11.033Z,33.03
2022-08-23T11:18:34.319Z,32.95
2022-08-23T11:19:52.744Z,32.85
2022-08-23T11:21:07.842Z,32.92
2022-08-23T11:22:26.290Z,32.99
2022-08-23T11:23:41.865Z,32.92
2022-08-23T11:25:04.283Z,33.22
2022-08-23T11:26:22.877Z,33.25
2022-08-23T11:27:31.894Z,33.12
2022-08-23T11:28:44.605Z,33.22
2022-08-23T11:29:47.366Z,33.18
2022-08-23T11:31:35.139Z,33.36
2022-08-23T11:32:42.854Z,33.26
2022-08-23T11:33:53.850Z,33.35
2022-08-23T11:35:09.112Z,33.48
2022-08-23T11:36:22.013Z,33.45
2022-08-23T11:37:28.743Z,33.43
2022-08-23T11:39:01.793Z,33.30
2022-08-23T11:40:08.762Z,33.30
2022-08-23T11:41:37.238Z,33.22
2022-08-23T11:42:39.315Z,33.38
2022-08-23T11:43:46.448Z,33.59
2022-08-23T11:44:49.930Z,33.48
2022-08-23T11:45:53.763Z,33.59
2022-08-23T11:47:03.474Z,33.49
2022-08-23T11:48:37.402Z,33.45
2022-08-23T11:50:03.002Z,33.46
2022-08-23T11:51:18.741Z,33.63
2022-08-23T11:52:32.953Z,33.71
2022-08-23T11:54:07.535Z,33.70
2022-08-23T11:55:12.394Z,33.51
2022-08-23T11:56:35.544Z,33.50
2022-08-23T11:58:26.782Z,33.38
2022-08-23T11:59:55.087Z,33.30
2022-08-23T12:01:08.200Z,33.48
2022-08-23T12:02:38.225Z,33.63
2022-08-23T12:04:00.232Z,33.65
2022-08-23T12:05:20.467Z,33.55
2022-08-23T12:06:42.749Z,33.73
2022-08-23T12:08:01.240Z,33.56
2022-08-23T12:09:13.779Z,33.51
2022-08-23T12:10:37.292Z,33.69
2022-08-23T12:12:02.443Z,33.45
2022-08-23T12:13:28.138Z,33.51
2022-08-23T12:14:32.987Z,33.36
2022-08-23T12:16:06.258Z,33.39
2022-08-23T12:17:19.225Z,33.60
2022-08-23T12:18:24.996Z,33.57
2022-08-23T12:19:49.474Z,33.53
2022-08-23T12:20:59.323Z,33.64
2022-08-23T12:22:19.003Z,33.49
2022-08-23T12:23:21.762Z,33.22
2022-08-23T12:24:40.214Z,33.16
2022-08-23T12:25:43.022Z,33.19
2022-08-23T12:26:59.294Z,33.25
2022-08-23T12:28:12.006Z,33.39
2022-08-23T12:29:26.583Z,33.31
2022-08-23T12:30:50.591Z,33.38
2022-08-23T12:32:31.351Z,33.31
2022-08-23T12:33:33.589Z,33.30
2022-08-23T12:34:45.291Z,33.25
2022-08-23T12:36:15.466Z,33.27
2022-08-23T12:38:00.619Z,33.04
2022-08-23T12:39:20.065Z,33.04
2022-08-23T12:40:30.248Z,32.96
2022-08-23T12:41:55.966Z,33.00
2022-08-23T12:43:22.255Z,33.11
2022-08-23T12:44:29.699Z,33.19
2022-08-23T12:45:40.082Z,33.28
2022-08-23T12:46:45.142Z,33.28
2022-08-23T12:47:58.459Z,33.38
2022-08-23T12:49:02.061Z,33.37
2022-08-23T12:50:26.093Z,33.41
2022-08-23T12:51:48.975Z,33.35
2022-08-23T12:53:03.418Z,33.10
2022-08-23T12:54:17.480Z,33.02
2022-08-23T12:55:20.631Z,33.01
2022-08-23T12:56:28.166Z,33.02
2022-08-23T12:57:37.708Z,33.06
2022-08-23T12:58:46.053Z,33.03
2022-08-23T13:00:18.763Z,33.09
2022-08-23T13:01:35.814Z,33.02
2022-08-23T13:02:39.570Z,33.05
2022-08-23T13:03:47.504Z,32.97
2022-08-23T13:04:51.195Z,33.02
2022-08-23T13:05:53.222Z,33.16
2022-08-23T13:07:04.624Z,33.12
2022-08-23T13:08:11.703Z,33.17
2022-08-23T13:09:17.221Z,33.04
2022-08-23T13:10:19.598Z,33.04
2022-08-23T13:11:25.999Z,33.06
2022-08-23T13:12:28.495Z,32.96
2022-08-23T13:13:31.432Z,32.94
2022-08-23T13:14:44.830Z,33.07
2022-08-23T13:15:51.915Z,33.09
2022-08-23T13:16:55.690Z,33.05
2022-08-23T13:18:02.595Z,33.10
2022-08-23T13:19:32.255Z,33.07
2022-08-23T13:20:34.623Z,33.06
2022-08-23T13:21:39.963Z,33.09
2022-08-23T13:23:00.508Z,33.04
2022-08-23T13:24:37.829Z,32.96
2022-08-23T13:25:43.038Z,33.01
2022-08-23T13:26:47.287Z,33.06
2022-08-23T13:27:49.395Z,32.93
2022-08-23T13:29:22.988Z,32.95
2022-08-23T13:30:30.083Z,32.87
2022-08-23T13:32:04.095Z,32.82
2022-08-23T13:33:10.610Z,32.66
2022-08-23T13:34:34.719Z,32.67
2022-08-23T13:35:40.695Z,32.68
2022-08-23T13:36:44.672Z,32.74
2022-08-23T13:37:47.468Z,32.72
2022-08-23T13:38:50.231Z,32.76
2022-08-23T13:39:59.404Z,32.69
2022-08-23T13:41:01.519Z,32.66
2022-08-23T13:42:04.175Z,32.73
2022-08-23T13:43:10.068Z,32.68
2022-08-23T13:44:16.957Z,32.63
2022-08-23T13:45:20.929Z,32.63
2022-08-23T13:46:28.852Z,32.69
2022-08-23T13:47:31.488Z,32.65
2022-08-23T13:48:52.399Z,32.67
2022-08-23T13:49:56.056Z,32.69
2022-08-23T13:51:39.851Z,32.66
2022-08-23T13:53:03.131Z,32.70
2022-08-23T13:54:10.651Z,32.57
2022-08-23T13:55:12.545Z,32.54
2022-08-23T13:56:15.745Z,32.54
2022-08-23T13:57:21.743Z,32.55
2022-08-23T13:58:30.668Z,32.58
2022-08-23T13:59:36.493Z,32.68
2022-08-23T14:00:38.874Z,32.69
2022-08-23T14:01:48.078Z,32.64
2022-08-23T14:02:50.977Z,32.56
2022-08-23T14:03:53.264Z,32.34
2022-08-23T14:04:55.664Z,32.30
2022-08-23T14:05:58.201Z,32.43
2022-08-23T14:07:00.748Z,32.23
2022-08-23T14:08:02.982Z,32.25
2022-08-23T14:09:06.777Z,32.19
2022-08-23T14:10:09.603Z,32.16
2022-08-23T14:11:16.028Z,32.04
2022-08-23T14:12:22.037Z,32.10
2022-08-23T14:13:28.189Z,32.13
2022-08-23T14:14:33.248Z,32.16
2022-08-23T14:17:02.101Z,32.15
2022-08-23T14:18:04.827Z,32.23
2022-08-23T14:19:19.172Z,32.19
2022-08-23T14:20:43.138Z,32.15
2022-08-23T14:21:47.005Z,32.12
2022-08-23T14:22:49.389Z,32.10
2022-08-23T14:23:51.823Z,32.12
2022-08-23T14:24:53.928Z,32.14
2022-08-23T14:25:58.315Z,32.14
2022-08-23T14:27:02.137Z,32.21
2022-08-23T14:28:04.452Z,32.19
2022-08-23T14:29:06.636Z,32.26
2022-08-23T14:30:31.301Z,32.24
2022-08-23T14:31:33.589Z,32.24
2022-08-23T14:32:35.808Z,32.25
2022-08-23T14:33:39.943Z,32.18
2022-08-23T14:34:42.219Z,32.16
2022-08-23T14:35:45.135Z,32.21
2022-08-23T14:38:15.445Z,32.20
2022-08-23T14:39:18.027Z,32.13
2022-08-23T14:40:20.728Z,32.07
2022-08-23T14:41:26.994Z,32.07
2022-08-23T14:42:29.170Z,32.04
2022-08-23T14:43:32.259Z,31.99
2022-08-23T14:44:36.277Z,31.92
2022-08-23T14:45:39.021Z,31.94
2022-08-23T14:46:41.269Z,31.92
2022-08-23T14:47:45.989Z,31.89
2022-08-23T14:48:48.778Z,31.92
2022-08-23T14:49:53.914Z,31.92
2022-08-23T14:50:56.949Z,31.91
2022-08-23T14:52:02.805Z,31.88
2022-08-23T14:53:06.773Z,31.85
2022-08-23T14:54:15.295Z,31.87
2022-08-23T14:55:17.464Z,31.84
2022-08-23T14:56:21.759Z,31.80
2022-08-23T14:57:24.228Z,31.78
2022-08-23T14:58:26.402Z,31.78
2022-08-23T14:59:28.812Z,31.78
2022-08-23T15:00:33.181Z,31.79
2022-08-23T15:01:37.142Z,31.68
2022-08-23T15:02:42.185Z,31.70
2022-08-23T15:03:45.426Z,31.62
2022-08-23T15:04:48.144Z,31.62
2022-08-23T15:05:50.512Z,31.53
2022-08-23T15:07:16.780Z,31.54
2022-08-23T15:08:15.919Z,31.51
2022-08-23T15:09:18.353Z,31.50
2022-08-23T15:13:21.657Z,31.51
2022-08-23T15:14:28.236Z,31.43
2022-08-23T15:15:30.820Z,31.43
2022-08-23T15:16:33.801Z,31.44
2022-08-23T15:17:38.673Z,31.42
2022-08-23T15:18:48.165Z,31.44
2022-08-23T15:19:50.284Z,31.40
2022-08-23T15:20:52.684Z,31.37
2022-08-23T15:21:54.866Z,31.36
2022-08-23T15:22:57.463Z,31.33
2022-08-23T15:23:59.909Z,31.33